sensor_id;sensor_type;location;lat;lon;timestamp;pressure;altitude;pressure_sealevel;temperature;humidity
17505;BME280;8870;50.950;11.762;2022-07-23T00:04:11;98446.22;;;18.34;100.00
17505;BME280;8870;50.950;11.762;2022-07-23T00:09:19;98443.72;;;18.32;100.00
17505;BME280;8870;50.950;11.762;2022-07-23T00:14:24;98443.91;;;18.31;100.00
17505;BME280;8870;50.950;11.762;2022-07-23T00:19:29;98451.25;;;18.24;100.00
17505;BME280;8870;50.950;11.762;2022-07-23T00:24:36;98429.44;;;18.24;100.00
17505;BME280;8870;50.950;11.762;2022-07-23T00:29:41;98426.50;;;18.18;100.00
17505;BME280;8870;50.950;11.762;2022-07-23T00:34:46;98413.91;;;18.17;100.00
17505;BME280;8870;50.950;11.762;2022-07-23T00:39:54;98413.94;;;18.11;100.00
17505;BME280;8870;50.950;11.762;2022-07-23T00:44:59;98407.41;;;18.05;100.00
17505;BME280;8870;50.950;11.762;2022-07-23T00:50:06;98397.38;;;18.06;100.00
17505;BME280;8870;50.950;11.762;2022-07-23T00:55:14;98369.69;;;18.02;100.00
17505;BME280;8870;50.950;11.762;2022-07-23T01:00:19;98368.66;;;18.03;100.00
17505;BME280;8870;50.950;11.762;2022-07-23T01:05:25;98371.56;;;18.01;100.00
17505;BME280;8870;50.950;11.762;2022-07-23T01:10:32;98375.16;;;18.02;100.00
17505;BME280;8870;50.950;11.762;2022-07-23T01:15:38;98373.47;;;18.01;100.00
17505;BME280;8870;50.950;11.762;2022-07-23T01:20:44;98383.31;;;18.02;100.00
17505;BME280;8870;50.950;11.762;2022-07-23T01:25:53;98381.84;;;17.93;100.00
17505;BME280;8870;50.950;11.762;2022-07-23T01:30:59;98373.44;;;17.87;100.00
17505;BME280;8870;50.950;11.762;2022-07-23T01:36:09;98358.13;;;17.86;100.00
17505;BME280;8870;50.950;11.762;2022-07-23T01:41:17;98344.28;;;17.88;100.00
17505;BME280;8870;50.950;11.762;2022-07-23T01:46:22;98349.97;;;17.86;100.00
17505;BME280;8870;50.950;11.762;2022-07-23T01:51:28;98366.13;;;17.81;100.00
17505;BME280;8870;50.950;11.762;2022-07-23T01:56:42;98356.44;;;17.72;100.00
17505;BME280;8870;50.950;11.762;2022-07-23T02:01:47;98376.13;;;17.54;100.00
17505;BME280;8870;50.950;11.762;2022-07-23T02:06:53;98379.03;;;17.32;100.00
17505;BME280;8870;50.950;11.762;2022-07-23T02:12:03;98402.06;;;17.23;100.00
17505;BME280;8870;50.950;11.762;2022-07-23T02:17:08;98397.44;;;17.17;100.00
17505;BME280;8870;50.950;11.762;2022-07-23T02:22:13;98398.47;;;17.16;100.00
17505;BME280;8870;50.950;11.762;2022-07-23T02:27:21;98382.56;;;17.13;100.00
17505;BME280;8870;50.950;11.762;2022-07-23T02:32:27;98377.50;;;17.03;100.00
17505;BME280;8870;50.950;11.762;2022-07-23T02:37:32;98380.19;;;16.96;100.00
17505;BME280;8870;50.950;11.762;2022-07-23T02:42:40;98406.16;;;16.99;100.00
17505;BME280;8870;50.950;11.762;2022-07-23T02:47:45;98400.72;;;16.99;100.00
17505;BME280;8870;50.950;11.762;2022-07-23T02:52:50;98354.28;;;17.07;100.00
17505;BME280;8870;50.950;11.762;2022-07-23T02:57:58;98356.59;;;17.10;100.00
17505;BME280;8870;50.950;11.762;2022-07-23T03:03:04;98346.31;;;17.12;100.00
17505;BME280;8870;50.950;11.762;2022-07-23T03:08:09;98347.53;;;17.03;100.00
17505;BME280;8870;50.950;11.762;2022-07-23T03:13:20;98343.81;;;17.10;100.00
17505;BME280;8870;50.950;11.762;2022-07-23T03:18:26;98347.53;;;17.03;100.00
17505;BME280;8870;50.950;11.762;2022-07-23T03:23:32;98341.47;;;17.01;100.00
17505;BME280;8870;50.950;11.762;2022-07-23T03:28:40;98375.53;;;16.90;100.00
17505;BME280;8870;50.950;11.762;2022-07-23T03:33:45;98500.00;;;16.46;100.00
17505;BME280;8870;50.950;11.762;2022-07-23T03:38:51;98539.56;;;16.27;100.00
17505;BME280;8870;50.950;11.762;2022-07-23T03:43:59;98518.13;;;16.17;100.00
17505;BME280;8870;50.950;11.762;2022-07-23T03:49:04;98402.28;;;16.09;100.00
17505;BME280;8870;50.950;11.762;2022-07-23T03:54:09;98432.22;;;15.72;100.00
17505;BME280;8870;50.950;11.762;2022-07-23T03:59:17;98392.16;;;15.53;100.00
17505;BME280;8870;50.950;11.762;2022-07-23T04:04:25;98382.69;;;15.49;100.00
17505;BME280;8870;50.950;11.762;2022-07-23T04:09:31;98386.19;;;15.43;100.00
17505;BME280;8870;50.950;11.762;2022-07-23T04:14:39;98397.88;;;15.43;100.00
17505;BME280;8870;50.950;11.762;2022-07-23T04:19:44;98406.75;;;15.52;100.00
17505;BME280;8870;50.950;11.762;2022-07-23T04:24:53;98428.09;;;15.55;100.00
17505;BME280;8870;50.950;11.762;2022-07-23T04:30:00;98485.56;;;15.59;100.00
17505;BME280;8870;50.950;11.762;2022-07-23T04:35:06;98476.25;;;15.46;100.00
17505;BME280;8870;50.950;11.762;2022-07-23T04:40:12;98432.75;;;15.61;100.00
17505;BME280;8870;50.950;11.762;2022-07-23T04:45:21;98421.56;;;15.71;100.00
17505;BME280;8870;50.950;11.762;2022-07-23T04:50:31;98415.81;;;15.81;100.00
17505;BME280;8870;50.950;11.762;2022-07-23T04:55:39;98434.34;;;15.92;100.00
17505;BME280;8870;50.950;11.762;2022-07-23T05:00:47;98407.25;;;16.06;100.00
17505;BME280;8870;50.950;11.762;2022-07-23T05:05:53;98429.31;;;16.17;100.00
17505;BME280;8870;50.950;11.762;2022-07-23T05:10:59;98455.06;;;16.22;100.00
17505;BME280;8870;50.950;11.762;2022-07-23T05:16:09;98446.84;;;16.15;100.00
17505;BME280;8870;50.950;11.762;2022-07-23T05:21:16;98418.88;;;16.21;100.00
17505;BME280;8870;50.950;11.762;2022-07-23T05:26:24;98455.94;;;16.29;100.00
17505;BME280;8870;50.950;11.762;2022-07-23T05:31:33;98474.16;;;16.28;100.00
17505;BME280;8870;50.950;11.762;2022-07-23T05:36:40;98472.59;;;16.19;100.00
17505;BME280;8870;50.950;11.762;2022-07-23T05:41:46;98487.53;;;16.30;100.00
17505;BME280;8870;50.950;11.762;2022-07-23T05:46:54;98506.13;;;16.26;100.00
17505;BME280;8870;50.950;11.762;2022-07-23T05:52:04;98493.50;;;16.18;100.00
17505;BME280;8870;50.950;11.762;2022-07-23T05:57:34;98480.41;;;16.29;100.00
17505;BME280;8870;50.950;11.762;2022-07-23T06:02:43;98466.00;;;16.35;100.00
17505;BME280;8870;50.950;11.762;2022-07-23T06:07:57;98451.69;;;16.48;100.00
17505;BME280;8870;50.950;11.762;2022-07-23T06:13:04;98436.31;;;16.69;100.00
17505;BME280;8870;50.950;11.762;2022-07-23T06:18:13;98461.53;;;16.84;100.00
17505;BME280;8870;50.950;11.762;2022-07-23T06:23:19;98457.59;;;16.93;100.00
17505;BME280;8870;50.950;11.762;2022-07-23T06:28:26;98458.09;;;17.04;100.00
17505;BME280;8870;50.950;11.762;2022-07-23T06:33:34;98473.28;;;17.27;100.00
17505;BME280;8870;50.950;11.762;2022-07-23T06:38:40;98465.84;;;17.55;100.00
17505;BME280;8870;50.950;11.762;2022-07-23T06:43:46;98454.53;;;17.72;100.00
17505;BME280;8870;50.950;11.762;2022-07-23T06:48:54;98463.75;;;17.71;100.00
17505;BME280;8870;50.950;11.762;2022-07-23T06:54:03;98453.50;;;17.80;100.00
17505;BME280;8870;50.950;11.762;2022-07-23T06:59:08;98461.06;;;17.84;100.00
17505;BME280;8870;50.950;11.762;2022-07-23T07:04:19;98458.75;;;17.95;100.00
17505;BME280;8870;50.950;11.762;2022-07-23T07:09:24;98478.69;;;17.95;100.00
17505;BME280;8870;50.950;11.762;2022-07-23T07:14:29;98477.69;;;18.03;100.00
17505;BME280;8870;50.950;11.762;2022-07-23T07:19:37;98474.53;;;18.06;100.00
17505;BME280;8870;50.950;11.762;2022-07-23T07:24:42;98486.06;;;18.22;100.00
17505;BME280;8870;50.950;11.762;2022-07-23T07:29:47;98494.03;;;18.43;100.00
17505;BME280;8870;50.950;11.762;2022-07-23T07:34:54;98499.69;;;18.69;100.00
17505;BME280;8870;50.950;11.762;2022-07-23T07:40:00;98492.31;;;18.83;100.00
17505;BME280;8870;50.950;11.762;2022-07-23T07:45:06;98497.16;;;18.94;100.00
17505;BME280;8870;50.950;11.762;2022-07-23T07:50:14;98496.88;;;19.16;100.00
17505;BME280;8870;50.950;11.762;2022-07-23T07:55:19;98492.38;;;19.42;100.00
17505;BME280;8870;50.950;11.762;2022-07-23T08:00:24;98487.44;;;19.64;100.00
17505;BME280;8870;50.950;11.762;2022-07-23T08:05:32;98491.75;;;19.78;100.00
17505;BME280;8870;50.950;11.762;2022-07-23T08:10:38;98489.34;;;19.95;100.00
17505;BME280;8870;50.950;11.762;2022-07-23T08:15:43;98503.69;;;19.84;100.00
17505;BME280;8870;50.950;11.762;2022-07-23T08:20:52;98496.69;;;19.63;100.00
17505;BME280;8870;50.950;11.762;2022-07-23T08:25:57;98498.75;;;19.67;100.00
17505;BME280;8870;50.950;11.762;2022-07-23T08:31:03;98486.06;;;19.86;100.00
17505;BME280;8870;50.950;11.762;2022-07-23T08:36:11;98503.69;;;19.91;100.00
17505;BME280;8870;50.950;11.762;2022-07-23T08:41:16;98517.59;;;19.89;100.00
17505;BME280;8870;50.950;11.762;2022-07-23T08:46:21;98522.22;;;19.82;100.00
17505;BME280;8870;50.950;11.762;2022-07-23T08:51:30;98528.13;;;19.79;100.00
17505;BME280;8870;50.950;11.762;2022-07-23T08:56:35;98537.88;;;19.61;100.00
17505;BME280;8870;50.950;11.762;2022-07-23T09:01:40;98533.25;;;19.09;100.00
17505;BME280;8870;50.950;11.762;2022-07-23T09:06:48;98544.19;;;18.96;100.00
17505;BME280;8870;50.950;11.762;2022-07-23T09:12:02;98537.22;;;19.14;100.00
17505;BME280;8870;50.950;11.762;2022-07-23T09:17:11;98540.16;;;19.19;100.00
17505;BME280;8870;50.950;11.762;2022-07-23T09:22:22;98555.31;;;19.01;100.00
17505;BME280;8870;50.950;11.762;2022-07-23T09:27:46;98544.78;;;19.12;100.00
17505;BME280;8870;50.950;11.762;2022-07-23T09:33:10;98538.44;;;19.24;100.00
17505;BME280;8870;50.950;11.762;2022-07-23T09:38:19;98546.09;;;19.54;100.00
17505;BME280;8870;50.950;11.762;2022-07-23T09:43:26;98551.09;;;19.71;100.00
17505;BME280;8870;50.950;11.762;2022-07-23T09:48:36;98553.47;;;19.54;100.00
17505;BME280;8870;50.950;11.762;2022-07-23T09:53:43;98551.78;;;19.60;100.00
17505;BME280;8870;50.950;11.762;2022-07-23T09:58:50;98550.88;;;19.73;100.00
17505;BME280;8870;50.950;11.762;2022-07-23T10:04:05;98549.34;;;19.90;100.00
17505;BME280;8870;50.950;11.762;2022-07-23T10:09:48;98553.63;;;20.11;100.00
17505;BME280;8870;50.950;11.762;2022-07-23T10:15:30;98551.69;;;19.86;100.00
17505;BME280;8870;50.950;11.762;2022-07-23T10:20:35;98559.22;;;19.84;100.00
17505;BME280;8870;50.950;11.762;2022-07-23T10:25:48;98566.56;;;19.91;100.00
17505;BME280;8870;50.950;11.762;2022-07-23T10:31:01;98553.31;;;19.94;100.00
17505;BME280;8870;50.950;11.762;2022-07-23T10:36:17;98573.09;;;19.83;100.00
17505;BME280;8870;50.950;11.762;2022-07-23T10:41:36;98579.78;;;19.42;100.00
17505;BME280;8870;50.950;11.762;2022-07-23T10:46:56;98573.78;;;19.71;100.00
17505;BME280;8870;50.950;11.762;2022-07-23T10:52:22;98573.69;;;20.30;100.00
17505;BME280;8870;50.950;11.762;2022-07-23T10:57:47;98563.47;;;20.51;100.00
17505;BME280;8870;50.950;11.762;2022-07-23T11:02:54;98563.94;;;20.99;100.00
17505;BME280;8870;50.950;11.762;2022-07-23T11:08:29;98555.34;;;21.51;100.00
17505;BME280;8870;50.950;11.762;2022-07-23T11:13:44;98550.81;;;21.63;100.00
17505;BME280;8870;50.950;11.762;2022-07-23T11:19:07;98543.16;;;21.84;100.00
17505;BME280;8870;50.950;11.762;2022-07-23T11:24:13;98541.56;;;22.07;100.00
17505;BME280;8870;50.950;11.762;2022-07-23T11:35:18;98558.69;;;22.75;100.00
17505;BME280;8870;50.950;11.762;2022-07-23T11:40:25;98552.25;;;23.05;100.00
17505;BME280;8870;50.950;11.762;2022-07-23T11:45:33;98549.84;;;22.97;100.00
17505;BME280;8870;50.950;11.762;2022-07-23T11:50:41;98555.59;;;22.95;100.00
17505;BME280;8870;50.950;11.762;2022-07-23T11:55:47;98542.22;;;23.22;100.00
17505;BME280;8870;50.950;11.762;2022-07-23T12:00:55;98542.31;;;23.16;100.00
17505;BME280;8870;50.950;11.762;2022-07-23T12:06:03;98544.22;;;23.03;100.00
17505;BME280;8870;50.950;11.762;2022-07-23T12:11:12;98548.88;;;23.15;100.00
17505;BME280;8870;50.950;11.762;2022-07-23T12:16:17;98551.75;;;23.08;100.00
17505;BME280;8870;50.950;11.762;2022-07-23T12:21:26;98540.88;;;23.01;100.00
17505;BME280;8870;50.950;11.762;2022-07-23T12:26:32;98540.88;;;23.13;100.00
17505;BME280;8870;50.950;11.762;2022-07-23T12:31:38;98534.50;;;23.48;100.00
17505;BME280;8870;50.950;11.762;2022-07-23T12:36:46;98532.09;;;23.52;100.00
17505;BME280;8870;50.950;11.762;2022-07-23T12:41:53;98530.75;;;23.26;100.00
17505;BME280;8870;50.950;11.762;2022-07-23T12:46:58;98543.84;;;22.88;100.00
17505;BME280;8870;50.950;11.762;2022-07-23T12:52:15;98527.50;;;22.93;100.00
17505;BME280;8870;50.950;11.762;2022-07-23T12:57:44;98529.56;;;22.86;100.00
17505;BME280;8870;50.950;11.762;2022-07-23T13:02:50;98524.16;;;22.91;100.00
17505;BME280;8870;50.950;11.762;2022-07-23T13:07:59;98526.41;;;23.06;100.00
17505;BME280;8870;50.950;11.762;2022-07-23T13:13:08;98528.38;;;23.58;100.00
17505;BME280;8870;50.950;11.762;2022-07-23T13:18:18;98516.34;;;23.76;100.00
17505;BME280;8870;50.950;11.762;2022-07-23T13:23:27;98527.84;;;24.14;100.00
17505;BME280;8870;50.950;11.762;2022-07-23T13:28:36;98526.19;;;24.64;100.00
17505;BME280;8870;50.950;11.762;2022-07-23T13:33:41;98515.91;;;24.93;100.00
17505;BME280;8870;50.950;11.762;2022-07-23T13:38:53;98518.19;;;24.62;100.00
17505;BME280;8870;50.950;11.762;2022-07-23T13:44:05;98513.41;;;25.09;100.00
17505;BME280;8870;50.950;11.762;2022-07-23T13:49:13;98510.50;;;25.21;100.00
17505;BME280;8870;50.950;11.762;2022-07-23T13:54:26;98515.34;;;24.91;100.00
17505;BME280;8870;50.950;11.762;2022-07-23T13:59:32;98518.69;;;25.33;100.00
17505;BME280;8870;50.950;11.762;2022-07-23T14:10:32;98508.44;;;25.50;100.00
17505;BME280;8870;50.950;11.762;2022-07-23T14:15:39;98505.47;;;25.79;100.00
17505;BME280;8870;50.950;11.762;2022-07-23T14:20:45;98521.19;;;26.06;98.64
17505;BME280;8870;50.950;11.762;2022-07-23T14:25:53;98517.97;;;25.87;86.92
17505;BME280;8870;50.950;11.762;2022-07-23T14:30:58;98520.75;;;25.92;93.92
17505;BME280;8870;50.950;11.762;2022-07-23T14:36:04;98510.09;;;25.51;97.60
17505;BME280;8870;50.950;11.762;2022-07-23T14:41:19;98518.97;;;25.14;97.74
17505;BME280;8870;50.950;11.762;2022-07-23T14:46:29;98509.28;;;25.12;100.00
17505;BME280;8870;50.950;11.762;2022-07-23T14:51:34;98506.06;;;25.59;94.82
17505;BME280;8870;50.950;11.762;2022-07-23T14:56:42;98511.63;;;26.14;82.80
17505;BME280;8870;50.950;11.762;2022-07-23T15:01:47;98514.81;;;26.28;79.53
17505;BME280;8870;50.950;11.762;2022-07-23T15:06:54;98503.44;;;26.57;74.74
17505;BME280;8870;50.950;11.762;2022-07-23T15:12:03;98509.03;;;26.67;73.86
17505;BME280;8870;50.950;11.762;2022-07-23T15:17:13;98514.34;;;26.74;69.60
17505;BME280;8870;50.950;11.762;2022-07-23T15:22:18;98502.56;;;26.89;68.16
17505;BME280;8870;50.950;11.762;2022-07-23T15:27:27;98499.06;;;26.61;66.09
17505;BME280;8870;50.950;11.762;2022-07-23T15:32:34;98505.69;;;26.65;68.28
17505;BME280;8870;50.950;11.762;2022-07-23T15:37:40;98501.81;;;26.61;68.99
17505;BME280;8870;50.950;11.762;2022-07-23T15:43:08;98505.97;;;26.64;66.04
17505;BME280;8870;50.950;11.762;2022-07-23T15:48:19;98490.34;;;26.80;67.60
17505;BME280;8870;50.950;11.762;2022-07-23T15:53:24;98496.16;;;27.26;64.80
17505;BME280;8870;50.950;11.762;2022-07-23T15:58:40;98481.88;;;26.97;61.20
17505;BME280;8870;50.950;11.762;2022-07-23T16:03:46;98485.56;;;27.13;59.22
17505;BME280;8870;50.950;11.762;2022-07-23T18:40:11;98558.03;;;24.72;57.89
17505;BME280;8870;50.950;11.762;2022-07-23T18:45:16;98557.56;;;24.46;58.50
17505;BME280;8870;50.950;11.762;2022-07-23T18:50:21;98564.53;;;24.20;58.62
17505;BME280;8870;50.950;11.762;2022-07-23T18:55:29;98568.59;;;23.88;59.82
17505;BME280;8870;50.950;11.762;2022-07-23T19:00:36;98580.75;;;23.63;61.73
17505;BME280;8870;50.950;11.762;2022-07-23T19:05:42;98570.63;;;23.40;62.96
17505;BME280;8870;50.950;11.762;2022-07-23T19:10:50;98592.25;;;23.36;66.15
17505;BME280;8870;50.950;11.762;2022-07-23T19:15:55;98600.63;;;23.18;75.55
17505;BME280;8870;50.950;11.762;2022-07-23T19:21:03;98602.03;;;22.97;95.51
17505;BME280;8870;50.950;11.762;2022-07-23T19:26:13;98609.06;;;22.81;100.00
17505;BME280;8870;50.950;11.762;2022-07-23T19:31:18;98618.00;;;22.64;100.00
17505;BME280;8870;50.950;11.762;2022-07-23T19:36:24;98623.59;;;22.57;100.00
17505;BME280;8870;50.950;11.762;2022-07-23T19:41:32;98632.25;;;22.42;100.00
17505;BME280;8870;50.950;11.762;2022-07-23T19:46:38;98635.41;;;22.27;100.00
17505;BME280;8870;50.950;11.762;2022-07-23T19:51:43;98640.25;;;22.13;100.00
17505;BME280;8870;50.950;11.762;2022-07-23T19:56:52;98643.78;;;22.02;100.00
17505;BME280;8870;50.950;11.762;2022-07-23T20:01:57;98640.50;;;21.93;100.00
17505;BME280;8870;50.950;11.762;2022-07-23T20:07:03;98645.44;;;21.84;100.00
17505;BME280;8870;50.950;11.762;2022-07-23T20:12:13;98661.22;;;21.70;100.00
17505;BME280;8870;50.950;11.762;2022-07-23T20:17:18;98666.28;;;21.48;100.00
17505;BME280;8870;50.950;11.762;2022-07-23T20:22:23;98668.88;;;21.43;100.00
17505;BME280;8870;50.950;11.762;2022-07-23T20:27:32;98683.13;;;21.27;100.00
17505;BME280;8870;50.950;11.762;2022-07-23T20:32:38;98684.78;;;21.09;100.00
17505;BME280;8870;50.950;11.762;2022-07-23T20:37:45;98692.44;;;21.00;100.00
17505;BME280;8870;50.950;11.762;2022-07-23T20:42:55;98702.31;;;20.69;100.00
17505;BME280;8870;50.950;11.762;2022-07-23T20:48:00;98712.09;;;20.52;100.00
17505;BME280;8870;50.950;11.762;2022-07-23T20:53:06;98713.19;;;20.37;100.00
17505;BME280;8870;50.950;11.762;2022-07-23T20:58:13;98721.91;;;20.27;100.00
17505;BME280;8870;50.950;11.762;2022-07-23T21:03:18;98721.09;;;20.13;100.00
17505;BME280;8870;50.950;11.762;2022-07-23T21:08:25;98721.13;;;20.07;100.00
17505;BME280;8870;50.950;11.762;2022-07-23T21:13:33;98727.03;;;20.04;100.00
17505;BME280;8870;50.950;11.762;2022-07-23T21:18:38;98725.56;;;20.01;100.00
17505;BME280;8870;50.950;11.762;2022-07-23T21:23:45;98734.81;;;20.00;100.00
17505;BME280;8870;50.950;11.762;2022-07-23T21:28:56;98742.63;;;19.90;100.00
17505;BME280;8870;50.950;11.762;2022-07-23T21:34:02;98749.34;;;19.74;100.00
17505;BME280;8870;50.950;11.762;2022-07-23T21:39:07;98757.38;;;19.55;100.00
17505;BME280;8870;50.950;11.762;2022-07-23T21:44:17;98758.44;;;19.47;100.00
17505;BME280;8870;50.950;11.762;2022-07-23T21:49:23;98758.22;;;19.35;100.00
17505;BME280;8870;50.950;11.762;2022-07-23T21:54:28;98758.44;;;19.27;100.00
17505;BME280;8870;50.950;11.762;2022-07-23T21:59:36;98759.91;;;19.16;100.00
17505;BME280;8870;50.950;11.762;2022-07-23T22:04:41;98767.88;;;19.04;100.00
17505;BME280;8870;50.950;11.762;2022-07-23T22:09:50;98773.53;;;18.96;100.00
17505;BME280;8870;50.950;11.762;2022-07-23T22:15:07;98770.34;;;18.86;100.00
17505;BME280;8870;50.950;11.762;2022-07-23T22:20:13;98765.66;;;18.66;100.00
17505;BME280;8870;50.950;11.762;2022-07-23T22:25:19;98772.34;;;18.57;100.00
17505;BME280;8870;50.950;11.762;2022-07-23T22:30:30;98777.16;;;18.55;100.00
17505;BME280;8870;50.950;11.762;2022-07-23T22:35:36;98780.06;;;18.46;100.00
17505;BME280;8870;50.950;11.762;2022-07-23T22:40:47;98781.09;;;18.39;100.00
17505;BME280;8870;50.950;11.762;2022-07-23T22:45:56;98786.50;;;18.32;100.00
17505;BME280;8870;50.950;11.762;2022-07-23T22:51:02;98779.56;;;18.23;100.00
17505;BME280;8870;50.950;11.762;2022-07-23T22:56:07;98774.06;;;18.16;100.00
17505;BME280;8870;50.950;11.762;2022-07-23T23:01:15;98775.91;;;18.09;100.00
17505;BME280;8870;50.950;11.762;2022-07-23T23:06:20;98776.34;;;18.12;100.00
17505;BME280;8870;50.950;11.762;2022-07-23T23:11:24;98776.75;;;18.09;100.00
17505;BME280;8870;50.950;11.762;2022-07-23T23:16:32;98771.47;;;18.01;100.00
17505;BME280;8870;50.950;11.762;2022-07-23T23:21:40;98778.50;;;17.89;100.00
17505;BME280;8870;50.950;11.762;2022-07-23T23:26:46;98780.28;;;17.75;100.00
17505;BME280;8870;50.950;11.762;2022-07-23T23:31:53;98781.03;;;17.62;100.00
17505;BME280;8870;50.950;11.762;2022-07-23T23:36:58;98781.38;;;17.52;100.00
17505;BME280;8870;50.950;11.762;2022-07-23T23:42:04;98779.75;;;17.36;100.00
17505;BME280;8870;50.950;11.762;2022-07-23T23:47:12;98784.84;;;17.17;100.00
17505;BME280;8870;50.950;11.762;2022-07-23T23:52:17;98773.25;;;17.08;100.00
17505;BME280;8870;50.950;11.762;2022-07-23T23:57:21;98781.34;;;17.02;100.00
